Candido Mota, Brazil
Current Conditions -  °F | °C
As of 6:00 PM on Friday 31 Oct 2014 (Local Time) from SBLO Reporting Station
Few Clouds Few Clouds  
Wind Chill: 90°   Ceiling: Unl
Heat Index: 90°   Visibility: 6mi
Dew Point: 63°   Wind: 5mph
Humidity: 40%   Direction: 10°N
Pressure: 29.88"   Gusts: NA
Location:  22.75°S, 50.39°W
Report Text: SBLO 312000Z 01004KT 9999 FEW030 32/17 Q1012
Loading
Personal Weather Stations






























Interactive Weather Map
Tropical Storm Tracking
New forecast layout! Learn more

10-Day Weather Forecast

Advertisements
Track Severe Weather on mobile